createdAt,value
2023-05-16T00:02:29.653Z,20.70
2023-05-16T00:04:59.920Z,20.90
2023-05-16T00:07:30.116Z,22.50
2023-05-16T00:10:00.529Z,18.60
2023-05-16T00:12:33.035Z,19.60
2023-05-16T00:15:03.433Z,20.40
2023-05-16T00:17:33.660Z,17.50
2023-05-16T00:20:12.036Z,19.50
2023-05-16T00:22:42.617Z,19.50
2023-05-16T00:25:13.176Z,18.80
2023-05-16T00:27:43.452Z,19.30
2023-05-16T00:30:15.441Z,19.70
2023-05-16T00:32:45.923Z,19.30
2023-05-16T00:35:16.526Z,17.60
2023-05-16T00:37:46.810Z,19.20
2023-05-16T00:40:17.525Z,18.70
2023-05-16T00:42:47.787Z,18.50
2023-05-16T00:45:18.112Z,18.60
2023-05-16T00:47:48.300Z,17.50
2023-05-16T00:50:18.662Z,19.40
2023-05-16T00:52:49.159Z,18.70
2023-05-16T00:55:19.516Z,18.80
2023-05-16T00:57:49.764Z,19.80
2023-05-16T01:00:21.539Z,18.10
2023-05-16T01:02:53.340Z,17.00
2023-05-16T01:05:24.616Z,19.70
2023-05-16T01:07:54.796Z,18.00
2023-05-16T01:10:25.539Z,20.10
2023-05-16T01:13:01.772Z,18.30
2023-05-16T01:15:34.026Z,19.80
2023-05-16T01:18:09.437Z,19.50
2023-05-16T01:20:45.370Z,17.30
2023-05-16T01:23:33.480Z,18.70
2023-05-16T01:26:21.386Z,17.50
2023-05-16T01:28:52.797Z,17.00
2023-05-16T01:31:24.545Z,17.20
2023-05-16T01:33:54.885Z,19.70
2023-05-16T01:36:30.392Z,14.80
2023-05-16T01:39:07.241Z,18.10
2023-05-16T01:41:50.885Z,18.00
2023-05-16T01:44:26.461Z,18.50
2023-05-16T01:46:59.327Z,18.00
2023-05-16T01:52:09.906Z,16.30
2023-05-16T01:54:41.663Z,15.70
2023-05-16T01:57:12.699Z,18.40
2023-05-16T01:59:44.967Z,16.60
2023-05-16T02:02:15.293Z,16.60
2023-05-16T02:04:45.619Z,18.10
2023-05-16T02:07:17.150Z,17.60
2023-05-16T02:09:48.833Z,15.30
2023-05-16T02:12:19.097Z,19.00
2023-05-16T02:14:49.336Z,18.00
2023-05-16T02:17:21.253Z,18.10
2023-05-16T02:19:51.596Z,19.30
2023-05-16T02:22:21.710Z,16.90
2023-05-16T02:24:52.045Z,16.60
2023-05-16T02:27:22.516Z,15.30
2023-05-16T02:29:52.769Z,15.70
2023-05-16T02:32:23.162Z,18.10
2023-05-16T02:34:55.595Z,18.20
2023-05-16T02:37:26.197Z,16.40
2023-05-16T02:39:56.358Z,16.40
2023-05-16T02:42:28.729Z,15.10
2023-05-16T02:44:58.897Z,17.40
2023-05-16T02:47:29.231Z,16.00
2023-05-16T02:49:59.912Z,15.50
2023-05-16T02:52:30.061Z,17.50
2023-05-16T02:55:20.211Z,16.10
2023-05-16T02:57:50.767Z,14.00
2023-05-16T03:00:22.558Z,14.30
2023-05-16T03:02:53.240Z,17.10
2023-05-16T03:05:24.850Z,13.00
2023-05-16T03:07:57.029Z,16.70
2023-05-16T03:10:27.338Z,15.50
2023-05-16T03:12:57.745Z,15.30
2023-05-16T03:15:28.543Z,15.10
2023-05-16T03:17:59.755Z,16.10
2023-05-16T03:20:30.024Z,13.70
2023-05-16T03:23:00.366Z,16.20
2023-05-16T03:25:30.840Z,15.60
2023-05-16T03:28:01.633Z,14.80
2023-05-16T03:30:32.100Z,15.10
2023-05-16T03:33:04.138Z,14.80
2023-05-16T03:35:35.646Z,14.70
2023-05-16T03:38:06.377Z,15.30
2023-05-16T03:40:36.905Z,14.90
2023-05-16T03:43:07.097Z,12.90
2023-05-16T03:45:37.542Z,12.50
2023-05-16T03:48:08.836Z,13.50
2023-05-16T03:50:41.004Z,12.20
2023-05-16T03:53:11.917Z,12.10
2023-05-16T03:55:42.229Z,11.50
2023-05-16T03:58:12.672Z,10.90
2023-05-16T04:00:42.857Z,9.30
2023-05-16T04:03:13.035Z,10.70
2023-05-16T04:05:45.351Z,10.00
2023-05-16T04:08:15.960Z,10.60
2023-05-16T04:10:46.300Z,8.40
2023-05-16T04:13:16.882Z,9.60
2023-05-16T04:15:47.050Z,8.40
2023-05-16T04:18:17.279Z,9.10
2023-05-16T04:20:48.468Z,7.90
2023-05-16T04:23:18.644Z,7.20
2023-05-16T04:25:48.795Z,7.00
2023-05-16T04:28:19.097Z,6.70
2023-05-16T04:30:50.355Z,6.40
2023-05-16T04:33:20.548Z,5.30
2023-05-16T04:35:51.099Z,5.60
2023-05-16T04:38:21.425Z,4.90
2023-05-16T04:40:52.020Z,4.80
2023-05-16T04:43:22.297Z,3.60
2023-05-16T04:45:53.967Z,3.00
2023-05-16T04:48:24.225Z,2.90
2023-05-16T04:50:54.372Z,2.80
2023-05-16T04:53:24.547Z,3.20
2023-05-16T04:55:55.249Z,2.70
2023-05-16T04:58:25.567Z,2.10
2023-05-16T05:00:56.948Z,2.40
2023-05-16T05:03:27.287Z,2.80
2023-05-16T05:05:57.481Z,2.60
2023-05-16T05:08:28.152Z,1.90
2023-05-16T05:10:59.639Z,2.50
2023-05-16T05:13:29.917Z,2.10
2023-05-16T05:16:00.144Z,2.40
2023-05-16T05:18:30.423Z,2.20
2023-05-16T05:21:00.802Z,3.20
2023-05-16T05:23:32.881Z,2.40
2023-05-16T05:26:03.207Z,3.10
2023-05-16T05:28:33.868Z,2.60
2023-05-16T05:31:05.266Z,2.60
2023-05-16T05:33:35.700Z,2.10
2023-05-16T05:36:07.407Z,2.30
2023-05-16T05:38:37.781Z,1.90
2023-05-16T05:41:08.067Z,1.80
2023-05-16T05:43:38.506Z,1.50
2023-05-16T05:46:09.492Z,1.20
2023-05-16T05:48:39.788Z,1.30
2023-05-16T05:51:10.201Z,0.90
2023-05-16T05:53:40.443Z,1.10
2023-05-16T05:56:11.321Z,0.90
2023-05-16T05:58:42.874Z,0.90
2023-05-16T06:01:14.173Z,0.70
2023-05-16T06:03:44.362Z,0.60
2023-05-16T06:06:15.595Z,0.80
2023-05-16T06:08:45.824Z,0.80
2023-05-16T06:11:16.130Z,0.60
2023-05-16T06:13:46.299Z,0.60
2023-05-16T06:16:17.002Z,0.60
2023-05-16T06:18:48.931Z,0.60
2023-05-16T06:21:19.387Z,0.70
2023-05-16T06:23:51.898Z,0.70
2023-05-16T06:26:22.854Z,0.60
2023-05-16T06:28:53.285Z,0.40
2023-05-16T06:31:23.642Z,0.60
2023-05-16T06:33:54.768Z,0.80
2023-05-16T06:36:25.082Z,0.70
2023-05-16T06:38:55.529Z,0.70
2023-05-16T06:41:26.468Z,0.60
2023-05-16T06:43:56.710Z,0.70
2023-05-16T06:46:27.715Z,0.70
2023-05-16T06:48:58.083Z,0.60
2023-05-16T06:51:28.301Z,0.50
2023-05-16T06:53:58.496Z,0.50
2023-05-16T06:56:31.442Z,0.30
2023-05-16T06:59:02.419Z,0.30
2023-05-16T07:01:32.681Z,0.40
2023-05-16T07:04:03.187Z,0.40
2023-05-16T07:06:33.461Z,0.30
2023-05-16T07:09:04.650Z,0.40
2023-05-16T07:11:35.126Z,0.30
2023-05-16T07:14:05.343Z,0.40
2023-05-16T07:16:35.842Z,0.30
2023-05-16T07:19:06.135Z,0.40
2023-05-16T07:21:36.624Z,0.50
2023-05-16T07:24:08.389Z,0.50
2023-05-16T07:26:39.359Z,0.40
2023-05-16T07:29:09.682Z,0.40
2023-05-16T07:31:40.225Z,0.40
2023-05-16T07:34:10.903Z,0.20
2023-05-16T07:36:41.445Z,0.40
2023-05-16T07:39:11.696Z,0.40
2023-05-16T07:41:41.894Z,0.30
2023-05-16T07:44:12.136Z,0.30
2023-05-16T07:46:44.877Z,0.30
2023-05-16T07:49:15.698Z,0.40
2023-05-16T07:51:46.016Z,0.40
2023-05-16T07:54:16.313Z,0.20
2023-05-16T07:56:46.549Z,0.30
2023-05-16T07:59:16.916Z,0.30
2023-05-16T08:01:47.837Z,0.40
2023-05-16T08:04:18.230Z,0.40
2023-05-16T08:06:48.748Z,0.60
2023-05-16T08:09:19.324Z,0.50
2023-05-16T08:11:49.478Z,0.50
2023-05-16T08:14:19.757Z,0.70
2023-05-16T08:16:50.032Z,0.50
2023-05-16T08:19:20.275Z,0.50
2023-05-16T08:21:50.720Z,0.60
2023-05-16T08:24:21.378Z,1.20
2023-05-16T08:26:51.868Z,0.60
2023-05-16T08:29:22.117Z,0.50
2023-05-16T08:31:52.428Z,0.80
2023-05-16T08:34:23.161Z,0.90
2023-05-16T08:36:54.439Z,0.80
2023-05-16T08:39:24.610Z,0.60
2023-05-16T08:41:54.838Z,0.60
2023-05-16T08:44:25.727Z,0.50
2023-05-16T08:46:56.772Z,0.50
2023-05-16T08:49:28.692Z,0.90
2023-05-16T08:52:00.070Z,0.70
2023-05-16T08:54:30.854Z,0.70
2023-05-16T08:57:02.508Z,0.80
2023-05-16T08:59:32.755Z,0.80
2023-05-16T09:02:04.054Z,1.10
2023-05-16T09:04:34.773Z,0.70
2023-05-16T09:07:06.031Z,0.80
2023-05-16T09:09:36.616Z,1.10
2023-05-16T09:12:08.139Z,0.90
2023-05-16T09:14:40.018Z,1.00
2023-05-16T09:17:12.642Z,0.90
2023-05-16T09:19:44.547Z,1.00
2023-05-16T09:22:16.000Z,0.80
2023-05-16T09:24:47.234Z,1.40
2023-05-16T09:27:18.327Z,1.60
2023-05-16T09:29:52.711Z,1.10
2023-05-16T09:32:22.947Z,1.30
2023-05-16T09:34:53.628Z,1.40
2023-05-16T09:37:23.880Z,1.50
2023-05-16T09:39:56.018Z,1.40
2023-05-16T09:42:27.720Z,1.70
2023-05-16T09:44:57.998Z,1.70
2023-05-16T09:47:30.828Z,1.50
2023-05-16T09:52:30.657Z,1.50
2023-05-16T09:55:00.809Z,1.70
2023-05-16T09:57:31.366Z,1.80
2023-05-16T10:00:05.010Z,1.90
2023-05-16T10:02:35.753Z,1.30
2023-05-16T10:05:07.051Z,1.80
2023-05-16T10:07:38.198Z,1.80
2023-05-16T10:10:10.833Z,2.20
2023-05-16T10:12:42.162Z,2.00
2023-05-16T10:15:12.989Z,1.60
2023-05-16T10:17:46.530Z,1.60
2023-05-16T10:20:17.777Z,1.90
2023-05-16T10:22:49.257Z,2.20
2023-05-16T10:25:24.639Z,1.70
2023-05-16T10:27:55.067Z,2.00
2023-05-16T10:30:27.029Z,1.90
2023-05-16T10:32:58.873Z,1.70
2023-05-16T10:35:29.455Z,1.50
2023-05-16T10:38:00.495Z,1.90
2023-05-16T10:40:31.295Z,1.60
2023-05-16T10:43:02.818Z,1.80
2023-05-16T10:45:33.426Z,1.70
2023-05-16T10:48:05.428Z,1.90
2023-05-16T10:50:37.314Z,1.60
2023-05-16T10:53:22.003Z,1.90
2023-05-16T10:56:12.548Z,1.80
2023-05-16T10:58:45.532Z,1.80
2023-05-16T11:01:20.598Z,2.20
2023-05-16T11:04:05.452Z,2.70
2023-05-16T11:06:36.817Z,1.70
2023-05-16T11:09:23.549Z,1.60
2023-05-16T11:12:02.830Z,1.50
2023-05-16T11:14:39.239Z,1.50
2023-05-16T11:17:14.192Z,1.90
2023-05-16T11:19:46.068Z,1.90
2023-05-16T11:22:34.186Z,1.80
2023-05-16T11:25:06.557Z,1.50
2023-05-16T11:27:38.557Z,1.70
2023-05-16T11:30:15.996Z,1.60
2023-05-16T11:32:48.378Z,1.50
2023-05-16T11:35:19.348Z,1.50
2023-05-16T11:37:50.580Z,2.10
2023-05-16T11:40:21.157Z,1.80
2023-05-16T11:42:51.528Z,1.60
2023-05-16T11:45:25.356Z,1.40
2023-05-16T11:47:56.078Z,1.90
2023-05-16T11:50:26.665Z,1.30
2023-05-16T11:52:57.784Z,1.90
2023-05-16T11:58:04.291Z,1.70
2023-05-16T12:00:34.570Z,1.60
2023-05-16T12:03:06.409Z,1.30
2023-05-16T12:05:37.288Z,1.40
2023-05-16T12:08:08.157Z,1.60
2023-05-16T12:10:38.602Z,1.90
2023-05-16T12:13:09.094Z,2.40
2023-05-16T12:15:39.592Z,1.50
2023-05-16T12:18:09.897Z,2.00
2023-05-16T12:20:40.647Z,1.50
2023-05-16T12:23:17.529Z,3.00
2023-05-16T12:25:57.884Z,1.70
2023-05-16T12:28:33.439Z,1.20
2023-05-16T12:31:04.074Z,1.60
2023-05-16T12:33:42.973Z,1.40
2023-05-16T12:36:16.525Z,1.10
2023-05-16T12:38:50.121Z,1.40
2023-05-16T12:41:24.233Z,1.20
2023-05-16T12:44:10.268Z,1.40
2023-05-16T12:46:49.188Z,1.30
2023-05-16T12:49:23.077Z,1.10
2023-05-16T12:51:54.997Z,1.40
2023-05-16T12:54:25.939Z,1.10
2023-05-16T12:56:56.881Z,1.00
2023-05-16T12:59:29.340Z,1.20
2023-05-16T13:01:59.918Z,1.50
2023-05-16T13:04:33.601Z,1.20
2023-05-16T13:07:04.926Z,1.40
2023-05-16T13:09:37.811Z,1.60
2023-05-16T13:12:10.776Z,1.20
2023-05-16T13:14:43.747Z,1.90
2023-05-16T13:17:14.453Z,1.30
2023-05-16T13:19:46.328Z,1.60
2023-05-16T13:22:20.406Z,1.30
2023-05-16T13:24:51.000Z,1.30
2023-05-16T13:27:21.391Z,1.30
2023-05-16T13:29:51.885Z,1.50
2023-05-16T13:32:22.446Z,1.40
2023-05-16T13:34:53.070Z,1.40
2023-05-16T13:37:24.596Z,1.00
2023-05-16T13:39:56.041Z,1.20
2023-05-16T13:42:26.626Z,1.30
2023-05-16T13:44:57.005Z,1.20
2023-05-16T13:47:29.802Z,1.30
2023-05-16T13:50:03.428Z,2.20
2023-05-16T13:52:34.636Z,1.40
2023-05-16T13:55:08.101Z,1.30
2023-05-16T13:57:38.642Z,1.30
2023-05-16T14:02:46.600Z,1.00
2023-05-16T14:05:17.307Z,1.20
2023-05-16T14:07:48.760Z,1.20
2023-05-16T14:10:19.216Z,1.10
2023-05-16T14:12:50.487Z,1.10
2023-05-16T14:15:21.319Z,1.00
2023-05-16T14:17:53.099Z,1.10
2023-05-16T14:20:27.424Z,1.20
2023-05-16T14:23:00.108Z,1.20
2023-05-16T14:28:01.375Z,1.10
2023-05-16T14:30:31.762Z,1.10
2023-05-16T14:33:03.418Z,1.50
2023-05-16T14:35:33.897Z,1.00
2023-05-16T14:38:04.235Z,1.30
2023-05-16T14:40:34.839Z,1.00
2023-05-16T14:43:05.062Z,1.00
2023-05-16T14:45:35.664Z,1.10
2023-05-16T14:48:08.348Z,1.20
2023-05-16T14:50:38.799Z,1.40
2023-05-16T14:53:09.332Z,1.20
2023-05-16T14:55:39.782Z,1.10
2023-05-16T14:58:09.992Z,1.10
2023-05-16T15:00:40.330Z,1.00
2023-05-16T15:03:10.568Z,1.00
2023-05-16T15:05:41.054Z,1.10
2023-05-16T15:08:11.286Z,1.00
2023-05-16T15:10:41.494Z,1.30
2023-05-16T15:13:11.760Z,1.30
2023-05-16T15:15:42.457Z,1.10
2023-05-16T15:18:12.910Z,1.20
2023-05-16T15:20:43.256Z,1.20
2023-05-16T15:23:13.738Z,1.40
2023-05-16T15:25:44.062Z,1.20
2023-05-16T15:28:14.361Z,1.10
2023-05-16T15:30:44.700Z,1.30
2023-05-16T15:33:15.453Z,1.00
2023-05-16T15:35:46.123Z,0.80
2023-05-16T15:38:19.372Z,1.10
2023-05-16T15:41:05.082Z,1.00
2023-05-16T15:43:43.174Z,1.30
2023-05-16T15:46:13.805Z,1.00
2023-05-16T15:48:46.518Z,1.00
2023-05-16T15:51:17.039Z,1.10
2023-05-16T15:53:48.427Z,1.10
2023-05-16T15:56:18.733Z,1.10
2023-05-16T15:58:49.100Z,1.20
2023-05-16T16:01:19.455Z,1.00
2023-05-16T16:03:52.900Z,0.90
2023-05-16T16:06:23.927Z,1.00
2023-05-16T16:08:58.511Z,1.30
2023-05-16T16:11:29.563Z,1.00
2023-05-16T16:14:05.402Z,0.90
2023-05-16T16:16:38.598Z,1.20
2023-05-16T16:19:09.284Z,1.20
2023-05-16T16:21:40.510Z,0.80
2023-05-16T16:24:16.825Z,0.80
2023-05-16T16:26:47.722Z,1.40
2023-05-16T16:29:18.209Z,1.10
2023-05-16T16:31:50.819Z,1.20
2023-05-16T16:34:23.240Z,1.10
2023-05-16T16:36:54.063Z,0.90
2023-05-16T16:39:25.908Z,0.80
2023-05-16T16:41:56.726Z,0.90
2023-05-16T16:44:28.366Z,1.60
2023-05-16T16:46:59.442Z,1.30
2023-05-16T16:49:31.764Z,1.20
2023-05-16T16:52:02.704Z,0.80
2023-05-16T16:54:33.136Z,1.20
2023-05-16T16:57:03.481Z,1.20
2023-05-16T16:59:35.744Z,0.90
2023-05-16T17:02:06.345Z,0.70
2023-05-16T17:04:36.670Z,1.10
2023-05-16T17:07:07.837Z,1.10
2023-05-16T17:09:42.135Z,1.50
2023-05-16T17:12:18.958Z,1.20
2023-05-16T17:14:51.116Z,1.40
2023-05-16T17:17:22.016Z,1.10
2023-05-16T17:19:52.904Z,1.10
2023-05-16T17:22:23.436Z,2.80
2023-05-16T17:24:53.930Z,1.50
2023-05-16T17:27:28.744Z,1.50
2023-05-16T17:29:59.205Z,1.10
2023-05-16T17:32:29.517Z,1.20
2023-05-16T17:35:03.952Z,1.00
2023-05-16T17:37:39.038Z,1.10
2023-05-16T17:40:16.808Z,1.80
2023-05-16T17:42:51.872Z,1.10
2023-05-16T17:45:23.861Z,1.00
2023-05-16T17:47:55.583Z,1.80
2023-05-16T17:50:32.653Z,1.30
2023-05-16T17:53:03.030Z,2.50
2023-05-16T17:55:35.199Z,1.60
2023-05-16T17:58:09.550Z,1.00
2023-05-16T18:00:40.937Z,1.10
2023-05-16T18:03:11.195Z,0.80
2023-05-16T18:05:41.673Z,1.10
2023-05-16T18:08:11.981Z,0.80
2023-05-16T18:10:51.577Z,0.80
2023-05-16T18:13:23.972Z,1.00
2023-05-16T18:15:54.212Z,0.80
2023-05-16T18:18:24.608Z,1.10
2023-05-16T18:20:54.962Z,2.20
2023-05-16T18:23:26.107Z,1.10
2023-05-16T18:25:56.490Z,1.10
2023-05-16T18:28:26.892Z,1.10
2023-05-16T18:30:57.209Z,0.90
2023-05-16T18:33:27.492Z,1.30
2023-05-16T18:36:00.727Z,1.00
2023-05-16T18:38:33.027Z,0.80
2023-05-16T18:41:04.199Z,0.60
2023-05-16T18:43:36.514Z,1.10
2023-05-16T18:46:06.862Z,0.90
2023-05-16T18:48:37.934Z,1.00
2023-05-16T18:51:08.303Z,1.20
2023-05-16T18:53:38.753Z,0.90
2023-05-16T18:56:09.025Z,1.00
2023-05-16T18:58:39.247Z,1.00
2023-05-16T19:01:09.669Z,1.30
2023-05-16T19:03:40.265Z,1.10
2023-05-16T19:06:11.420Z,1.00
2023-05-16T19:08:48.173Z,0.90
2023-05-16T19:11:18.834Z,0.90
2023-05-16T19:13:49.338Z,1.10
2023-05-16T19:16:19.869Z,1.30
2023-05-16T19:18:50.390Z,0.90
2023-05-16T19:21:20.740Z,1.00
2023-05-16T19:23:51.635Z,1.00
2023-05-16T19:26:21.926Z,1.00
2023-05-16T19:28:52.180Z,0.80
2023-05-16T19:31:22.914Z,1.10
2023-05-16T19:33:53.168Z,1.00
2023-05-16T19:36:23.812Z,1.20
2023-05-16T19:38:54.189Z,1.10
2023-05-16T19:41:24.627Z,1.20
2023-05-16T19:43:54.918Z,1.10
2023-05-16T19:46:25.423Z,1.20
2023-05-16T19:48:56.000Z,1.30
2023-05-16T19:51:40.168Z,1.40
2023-05-16T19:54:11.838Z,1.00
2023-05-16T19:56:42.188Z,0.90
2023-05-16T19:59:16.119Z,1.00
2023-05-16T20:01:46.814Z,0.90
2023-05-16T20:04:17.441Z,1.30
2023-05-16T20:06:48.016Z,1.30
2023-05-16T20:09:19.250Z,0.90
2023-05-16T20:11:53.699Z,1.10
2023-05-16T20:14:24.136Z,0.80
2023-05-16T20:16:54.786Z,1.10
2023-05-16T20:19:25.195Z,0.80
2023-05-16T20:21:55.875Z,1.10
2023-05-16T20:24:26.438Z,1.10
2023-05-16T20:26:56.717Z,1.10
2023-05-16T20:29:27.014Z,1.10
2023-05-16T20:31:57.472Z,1.40
2023-05-16T20:34:28.016Z,1.20
2023-05-16T20:36:58.764Z,1.20
2023-05-16T20:39:30.768Z,1.30
2023-05-16T20:42:01.307Z,1.30
2023-05-16T20:44:33.743Z,1.10
2023-05-16T20:47:04.208Z,1.50
2023-05-16T20:49:36.080Z,1.30
2023-05-16T20:52:07.108Z,1.30
2023-05-16T20:54:37.522Z,1.40
2023-05-16T20:57:08.398Z,1.30
2023-05-16T20:59:38.965Z,1.30
2023-05-16T21:02:10.567Z,1.30
2023-05-16T21:04:40.982Z,1.40
2023-05-16T21:07:12.303Z,1.50
2023-05-16T21:09:42.633Z,1.00
2023-05-16T21:12:13.224Z,1.90
2023-05-16T21:14:44.648Z,1.40
2023-05-16T21:17:14.914Z,1.30
2023-05-16T21:19:45.217Z,1.50
2023-05-16T21:22:15.472Z,1.60
2023-05-16T21:24:45.691Z,1.30
2023-05-16T21:27:17.575Z,1.60
2023-05-16T21:29:47.870Z,1.80
2023-05-16T21:32:18.176Z,1.90
2023-05-16T21:34:48.429Z,1.50
2023-05-16T21:37:18.648Z,1.70
2023-05-16T21:39:48.887Z,1.50
2023-05-16T21:42:20.667Z,1.70
2023-05-16T21:44:50.966Z,1.30
2023-05-16T21:47:21.316Z,1.60
2023-05-16T21:49:51.602Z,1.40
2023-05-16T21:52:21.904Z,1.70
2023-05-16T21:54:52.462Z,2.20
2023-05-16T21:57:22.699Z,1.80
2023-05-16T21:59:53.017Z,1.40
2023-05-16T22:02:23.633Z,1.80
2023-05-16T22:04:54.842Z,1.60
2023-05-16T22:07:29.800Z,2.10
2023-05-16T22:10:00.659Z,1.40
2023-05-16T22:12:31.111Z,1.50
2023-05-16T22:15:01.333Z,1.70
